Tannersville, Virginia
Current Conditions -  °F | °C
As of 9:15 AM on Thursday 29 Jan 2015 (Local Time) from KJFZ Reporting Station
Clear Clear  
Wind Chill: 35°   Ceiling: Unl
Heat Index: 38°   Visibility: 10mi
Dew Point: 12°   Wind: 5mph
Humidity: 34%   Direction: 140°SE
Pressure: 30.08"   Gusts: NA
Location:  36.98°N, 81.63°W
Report Text: KJFZ 291415Z AUTO 14004KT 10SM CLR 04/M11 A3008 RMK AO2 T00351112
Loading
Personal Weather Stations






























Interactive Weather Map New forecast layout! Learn more

10-Day Weather Forecast

Advertisements
Track Severe Weather on mobile